Porter, Maine
Current Conditions -  °F | °C
As of 10:54 AM on Sunday 25 Jan 2015 (Local Time) from KIZG Reporting Station
Clear Clear  
Wind Chill: 17°   Ceiling: Unl
Heat Index: 28°   Visibility: 10mi
Dew Point:   Wind: 14mph
Humidity: 41%   Direction: 280°W
Pressure: 29.54"   Gusts: 24mph
Location:  43.8°N, 70.93°W
Report Text: KIZG 251554Z AUTO 28012G21KT 10SM CLR M02/M14 A2954 RMK AO2 PK WND 31032/1507 SLP009 T10221139
Loading
Personal Weather Stations






























Interactive Weather Map New forecast layout! Learn more

10-Day Weather Forecast

Advertisements
Track Severe Weather on mobile